Time;durP1;ratioP1;P1;durP2;ratioP2;P2;SDS_P1;SDS_P2;PMS_P1;PMS_P2;Temp;Humidity;BMP_temperature;BMP_pressure;BME280_temperature;BME280_humidity;BME280_pressure;Samples;Min_cycle;Max_cycle;Signal;HPM_P1;HPM_P2
2021/12/25 00:00:14;;;;;;;8.02;7.32;;;2.30;99.90;;;;;;5018003;28;20931;-65
2021/12/25 00:02:41;;;;;;;7.55;6.95;;;2.30;99.90;;;;;;5020086;28;20628;-65
2021/12/25 00:05:10;;;;;;;8.00;7.20;;;2.30;99.90;;;;;;5021539;28;20215;-66
2021/12/25 00:07:39;;;;;;;7.28;6.60;;;2.30;99.90;;;;;;5019140;28;20289;-65
2021/12/25 00:10:07;;;;;;;7.97;7.05;;;2.30;99.90;;;;;;5024737;28;20269;-65
2021/12/25 00:12:34;;;;;;;8.40;7.60;;;2.30;99.90;;;;;;5023879;28;20858;-65
2021/12/25 00:15:02;;;;;;;7.60;6.90;;;2.30;99.90;;;;;;5021879;28;20271;-65
2021/12/25 00:17:29;;;;;;;7.25;6.65;;;2.30;99.90;;;;;;5017328;28;20243;-66
2021/12/25 00:19:56;;;;;;;7.10;6.50;;;2.30;99.90;;;;;;5020592;28;20602;-65
2021/12/25 00:22:23;;;;;;;7.57;6.90;;;2.40;99.90;;;;;;5020669;28;20200;-66
2021/12/25 00:24:51;;;;;;;7.38;6.80;;;2.40;99.90;;;;;;5022328;28;20235;-66
2021/12/25 00:27:38;;;;;;;7.20;6.60;;;2.40;99.90;;;;;;5025019;28;20219;-65
2021/12/25 00:30:16;;;;;;;7.57;6.88;;;2.40;99.90;;;;;;5021856;28;20223;-65
2021/12/25 00:32:52;;;;;;;8.25;7.43;;;2.40;99.90;;;;;;5025025;28;20199;-65
2021/12/25 00:35:19;;;;;;;8.15;7.45;;;2.30;99.90;;;;;;5019409;28;20311;-66
2021/12/25 00:37:46;;;;;;;7.88;7.18;;;2.20;99.90;;;;;;5029272;28;20297;-65
2021/12/25 00:40:17;;;;;;;7.80;7.10;;;2.20;99.90;;;;;;5031661;28;20615;-65
2021/12/25 00:42:44;;;;;;;7.63;6.97;;;2.20;99.90;;;;;;5032263;28;20215;-65
2021/12/25 00:45:11;;;;;;;7.50;6.90;;;2.10;99.90;;;;;;5031557;28;20219;-65
2021/12/25 00:47:38;;;;;;;7.13;6.53;;;2.10;99.90;;;;;;5025650;28;20274;-65
2021/12/25 00:50:06;;;;;;;8.15;7.45;;;2.10;99.90;;;;;;5028989;28;20227;-66
2021/12/25 00:52:33;;;;;;;7.55;6.85;;;2.10;99.90;;;;;;5031955;28;20203;-66
2021/12/25 00:55:04;;;;;;;8.13;7.43;;;2.10;99.90;;;;;;5032155;28;20223;-65
2021/12/25 00:57:32;;;;;;;7.95;7.15;;;2.20;99.90;;;;;;5032085;28;20218;-65
2021/12/25 00:59:59;;;;;;;6.97;6.38;;;2.20;99.90;;;;;;5027408;28;20266;-65
2021/12/25 01:02:27;;;;;;;8.10;7.40;;;2.20;99.90;;;;;;5030244;28;20246;-65
2021/12/25 01:04:54;;;;;;;7.70;7.00;;;2.30;99.90;;;;;;5031377;28;20742;-65
2021/12/25 01:07:21;;;;;;;7.53;6.82;;;2.30;99.90;;;;;;5028114;28;20763;-65
2021/12/25 01:09:48;;;;;;;7.28;6.68;;;2.40;99.90;;;;;;5029866;28;20220;-65
2021/12/25 01:12:16;;;;;;;6.63;6.13;;;2.40;99.90;;;;;;5030144;28;20253;-65
2021/12/25 01:14:49;;;;;;;6.63;6.13;;;2.40;99.90;;;;;;5028874;28;20223;-65
2021/12/25 01:17:46;;;;;;;7.35;6.75;;;2.40;99.90;;;;;;5028769;28;20222;-65
2021/12/25 01:20:55;;;;;;;6.75;6.25;;;2.40;99.90;;;;;;5038616;28;20317;-65
2021/12/25 01:29:29;;;;;;;7.45;6.75;;;2.30;99.90;;;;;;5065003;27;20645;-66
2021/12/25 01:32:17;;;;;;;6.82;6.13;;;2.30;99.90;;;;;;5049508;28;20199;-66
2021/12/25 01:35:18;;;;;;;6.22;5.72;;;2.30;99.90;;;;;;5046517;28;20219;-64
2021/12/25 01:37:58;;;;;;;6.53;6.03;;;2.40;99.90;;;;;;5037529;28;20344;-65
2021/12/25 01:40:45;;;;;;;7.40;6.80;;;2.40;99.90;;;;;;5051152;28;20850;-65
2021/12/25 01:48:50;;;;;;;6.93;6.32;;;2.50;99.90;;;;;;5043512;28;20597;-65
2021/12/25 01:51:18;;;;;;;6.47;5.97;;;2.50;99.90;;;;;;5047441;28;20669;-65
2021/12/25 01:53:45;;;;;;;7.13;6.50;;;2.50;99.90;;;;;;5052426;28;20198;-65
2021/12/25 01:56:12;;;;;;;6.45;5.95;;;2.50;99.90;;;;;;5046393;28;20215;-65
2021/12/25 01:58:39;;;;;;;7.38;6.47;;;2.50;99.90;;;;;;5045988;28;20218;-65
2021/12/25 02:01:09;;;;;;;7.43;6.72;;;2.50;99.90;;;;;;5045831;28;20740;-65
2021/12/25 02:03:37;;;;;;;6.00;5.60;;;2.40;99.90;;;;;;5050234;28;20657;-65
2021/12/25 02:06:05;;;;;;;6.32;5.82;;;2.40;99.90;;;;;;5049651;28;20284;-65
2021/12/25 02:08:34;;;;;;;5.88;5.38;;;2.50;99.90;;;;;;5042951;28;20234;-65
2021/12/25 02:11:01;;;;;;;6.35;5.85;;;2.50;99.90;;;;;;5037468;28;20222;-65
2021/12/25 02:13:28;;;;;;;6.13;5.63;;;2.50;99.90;;;;;;5043874;28;20676;-65
2021/12/25 02:15:57;;;;;;;6.07;5.57;;;2.50;99.90;;;;;;5050334;28;20269;-65
2021/12/25 02:18:31;;;;;;;7.50;6.40;;;2.60;99.90;;;;;;5048003;28;20211;-65
2021/12/25 02:21:08;;;;;;;7.03;6.32;;;2.60;99.90;;;;;;5051230;28;20226;-66
2021/12/25 02:23:36;;;;;;;5.72;5.32;;;2.60;99.90;;;;;;5048427;28;20217;-65
2021/12/25 02:26:04;;;;;;;6.47;5.95;;;2.50;99.90;;;;;;5042796;28;20230;-65
2021/12/25 02:28:31;;;;;;;5.82;5.40;;;2.50;99.90;;;;;;5040525;28;20222;-65
2021/12/25 02:31:01;;;;;;;6.07;5.63;;;2.50;99.90;;;;;;5037254;28;20285;-65
2021/12/25 02:33:29;;;;;;;5.97;5.47;;;2.50;99.90;;;;;;5040380;28;20203;-65
2021/12/25 02:35:57;;;;;;;6.03;5.47;;;2.50;99.90;;;;;;5038656;28;20269;-66
2021/12/25 02:38:27;;;;;;;6.35;5.85;;;2.50;99.90;;;;;;5032763;28;20718;-65
2021/12/25 02:40:54;;;;;;;6.00;5.60;;;2.60;99.90;;;;;;5025736;28;20228;-65
2021/12/25 02:43:22;;;;;;;6.25;5.75;;;2.60;99.90;;;;;;5023314;28;20290;-65
2021/12/25 02:45:49;;;;;;;5.68;5.10;;;2.60;99.90;;;;;;5027869;28;20219;-66
2021/12/25 02:48:19;;;;;;;6.30;5.80;;;2.60;99.90;;;;;;5024426;28;20211;-65
2021/12/25 02:50:47;;;;;;;7.25;6.75;;;2.60;99.90;;;;;;5028379;28;20270;-65
2021/12/25 02:53:15;;;;;;;7.10;6.50;;;2.60;99.90;;;;;;5025980;28;20203;-66
2021/12/25 02:55:46;;;;;;;6.75;6.18;;;2.50;99.90;;;;;;5029460;28;20215;-65
2021/12/25 02:58:14;;;;;;;6.85;6.25;;;2.50;99.90;;;;;;5025120;28;20218;-65
2021/12/25 03:00:43;;;;;;;6.88;6.28;;;2.50;99.90;;;;;;5020855;28;20215;-66
2021/12/25 03:03:11;;;;;;;6.57;6.07;;;2.40;99.90;;;;;;5021842;28;20253;-65
2021/12/25 03:05:38;;;;;;;6.40;5.80;;;2.50;99.90;;;;;;5029082;28;20285;-66
2021/12/25 03:08:08;;;;;;;6.40;5.90;;;2.50;99.90;;;;;;5029646;28;20242;-65
2021/12/25 03:10:36;;;;;;;5.70;5.28;;;2.50;99.90;;;;;;5024982;28;20214;-66
2021/12/25 03:13:18;;;;;;;6.45;5.95;;;2.50;99.90;;;;;;5027939;28;20810;-65
2021/12/25 03:15:47;;;;;;;6.25;5.82;;;2.50;99.90;;;;;;5026114;28;20222;-65
2021/12/25 03:18:15;;;;;;;6.10;5.60;;;2.50;99.90;;;;;;5023655;28;20243;-65
2021/12/25 03:20:45;;;;;;;6.28;5.80;;;2.60;99.90;;;;;;5019444;28;20227;-66
2021/12/25 03:23:13;;;;;;;6.05;5.55;;;2.60;99.90;;;;;;5023585;28;20204;-66
2021/12/25 03:25:41;;;;;;;5.95;5.35;;;2.60;99.90;;;;;;5033456;28;20295;-66
2021/12/25 03:28:10;;;;;;;6.07;5.57;;;2.60;99.90;;;;;;5049662;28;20219;-67
2021/12/25 03:30:39;;;;;;;5.70;5.20;;;2.60;99.90;;;;;;5047341;28;20220;-65
2021/12/25 03:33:07;;;;;;;5.75;5.35;;;2.60;99.90;;;;;;5045191;28;20255;-65
2021/12/25 03:35:34;;;;;;;4.72;4.38;;;2.70;99.90;;;;;;5023407;28;20227;-66
2021/12/25 03:38:02;;;;;;;4.75;4.45;;;2.70;99.90;;;;;;5023353;28;20302;-65
2021/12/25 03:40:29;;;;;;;5.93;5.45;;;2.80;99.90;;;;;;5026810;28;20807;-65
2021/12/25 03:42:56;;;;;;;5.88;5.38;;;2.80;99.90;;;;;;5025933;28;20203;-65
2021/12/25 03:45:27;;;;;;;8.68;7.82;;;2.80;99.90;;;;;;5025659;28;20223;-65
2021/12/25 03:48:05;;;;;;;6.78;6.18;;;2.60;99.90;;;;;;5043752;22;20223;-75
2021/12/25 03:53:35;;;;;;;6.78;6.18;;;2.50;99.90;;;;;;5031350;28;20218;-76
2021/12/25 03:58:48;;;;;;;6.45;5.95;;;2.60;99.90;;;;;;5023118;28;20345;-76
2021/12/25 04:01:28;;;;;;;6.57;6.07;;;2.60;99.90;;;;;;5026547;28;20228;-75
2021/12/25 04:04:06;;;;;;;6.32;5.75;;;2.60;99.90;;;;;;5024126;28;20195;-75
2021/12/25 04:06:35;;;;;;;6.22;5.72;;;2.60;99.90;;;;;;5022660;28;20234;-75
2021/12/25 04:09:09;;;;;;;6.93;6.43;;;2.60;99.90;;;;;;5031793;28;20251;-74
2021/12/25 04:11:40;;;;;;;7.07;6.47;;;2.60;99.90;;;;;;5029236;28;20223;-75
2021/12/25 04:14:07;;;;;;;6.07;5.57;;;2.60;99.90;;;;;;5026406;28;20701;-75
2021/12/25 04:16:36;;;;;;;6.78;6.10;;;2.60;99.90;;;;;;5024175;28;20230;-75
2021/12/25 04:19:03;;;;;;;6.30;5.80;;;2.60;99.90;;;;;;5023654;28;20236;-75
2021/12/25 04:21:30;;;;;;;6.30;5.80;;;2.60;99.90;;;;;;5022847;28;20215;-76
2021/12/25 04:23:57;;;;;;;6.45;5.95;;;2.60;99.90;;;;;;5026563;28;20195;-75
2021/12/25 04:26:25;;;;;;;5.90;5.40;;;2.60;99.90;;;;;;5023400;28;20243;-76
2021/12/25 04:29:03;;;;;;;6.80;6.20;;;2.60;99.90;;;;;;5023586;28;20220;-75
2021/12/25 04:31:45;;;;;;;6.30;5.80;;;2.60;99.90;;;;;;5026871;28;20239;-76
2021/12/25 05:01:52;;;;;;;6.22;5.72;;;2.80;99.90;;;;;;5021155;28;20287;-75
2021/12/25 05:04:24;;;;;;;6.72;6.13;;;2.80;99.90;;;;;;5022372;28;20191;-75
2021/12/25 05:06:52;;;;;;;6.10;5.60;;;2.90;99.90;;;;;;5021991;28;20222;-75
2021/12/25 05:09:19;;;;;;;6.13;5.63;;;2.90;99.90;;;;;;5022061;28;20270;-75
2021/12/25 05:11:47;;;;;;;6.53;5.90;;;3.00;99.90;;;;;;5023558;28;20273;-73
2021/12/25 05:14:14;;;;;;;5.88;5.40;;;3.00;99.90;;;;;;5023143;28;20212;-75
2021/12/25 05:16:41;;;;;;;6.13;5.63;;;3.00;99.90;;;;;;5022082;28;20220;-75
2021/12/25 05:19:08;;;;;;;5.55;5.07;;;2.90;99.90;;;;;;5025086;28;20261;-74
2021/12/25 05:21:35;;;;;;;5.15;4.75;;;2.90;99.90;;;;;;5023696;28;20239;-76
2021/12/25 05:24:05;;;;;;;5.95;5.50;;;3.00;99.90;;;;;;5026001;28;21261;-75
2021/12/25 05:26:33;;;;;;;5.78;5.28;;;3.00;99.90;;;;;;5025643;28;20783;-75
2021/12/25 05:29:01;;;;;;;5.47;5.00;;;3.00;99.90;;;;;;5024531;28;20338;-75
2021/12/25 05:31:30;;;;;;;5.43;5.03;;;3.00;99.90;;;;;;5024285;28;20637;-75
2021/12/25 05:33:57;;;;;;;6.00;5.50;;;3.00;99.90;;;;;;5025092;28;20254;-75
2021/12/25 05:36:27;;;;;;;6.18;5.68;;;3.00;99.90;;;;;;5022198;28;22364;-75
2021/12/25 05:38:56;;;;;;;6.43;5.93;;;3.00;99.90;;;;;;5025972;28;20303;-74
2021/12/25 05:41:25;;;;;;;5.88;5.40;;;3.00;99.90;;;;;;5022188;28;20592;-75
2021/12/25 05:43:52;;;;;;;6.45;5.85;;;3.00;99.90;;;;;;5022536;28;20199;-75
2021/12/25 05:46:20;;;;;;;5.82;5.32;;;2.90;99.90;;;;;;5024257;28;20227;-75
2021/12/25 05:48:50;;;;;;;6.20;5.70;;;3.00;99.90;;;;;;5022753;28;20292;-75
2021/12/25 05:51:18;;;;;;;6.68;6.18;;;2.90;99.90;;;;;;5022195;28;20227;-76
2021/12/25 05:53:45;;;;;;;5.88;5.47;;;2.90;99.90;;;;;;5021638;28;20227;-75
2021/12/25 05:56:12;;;;;;;5.80;5.30;;;2.90;99.90;;;;;;5022676;28;20212;-75
2021/12/25 05:58:41;;;;;;;6.70;6.10;;;2.90;99.90;;;;;;5020531;28;20215;-76
2021/12/25 06:01:08;;;;;;;6.40;5.80;;;2.90;99.90;;;;;;5019276;28;20725;-75
2021/12/25 06:03:35;;;;;;;6.78;6.22;;;2.90;99.90;;;;;;5021544;28;20210;-76
2021/12/25 06:06:02;;;;;;;7.00;6.40;;;2.80;99.90;;;;;;5021165;28;20227;-75
2021/12/25 06:08:29;;;;;;;7.00;6.40;;;2.80;99.90;;;;;;5020672;28;20259;-75
2021/12/25 06:10:57;;;;;;;7.20;6.60;;;2.80;99.90;;;;;;5021446;28;20226;-75
2021/12/25 06:13:24;;;;;;;6.80;6.20;;;2.80;99.90;;;;;;5022879;28;20283;-76
2021/12/25 06:15:53;;;;;;;6.50;5.95;;;2.80;99.90;;;;;;5025405;28;20227;-75
2021/12/25 06:18:20;;;;;;;7.20;6.50;;;2.80;99.90;;;;;;5023501;28;20318;-75
2021/12/25 06:20:47;;;;;;;6.75;6.15;;;2.80;99.90;;;;;;5021639;28;21615;-75
2021/12/25 06:23:14;;;;;;;6.20;5.70;;;2.80;99.90;;;;;;5027103;28;20200;-75
2021/12/25 06:25:42;;;;;;;6.85;6.25;;;2.90;99.90;;;;;;5024912;28;20592;-75
2021/12/25 06:28:09;;;;;;;7.18;6.57;;;2.90;99.90;;;;;;5026476;28;20232;-76
2021/12/25 06:30:38;;;;;;;6.93;6.32;;;2.90;99.90;;;;;;5024872;28;20228;-75
2021/12/25 06:33:07;;;;;;;6.55;6.05;;;2.90;99.90;;;;;;5025340;28;20196;-76
2021/12/25 06:35:33;;;;;;;6.43;5.93;;;3.00;99.90;;;;;;5030626;28;20763;-75
2021/12/25 06:38:01;;;;;;;6.82;6.13;;;3.00;99.90;;;;;;5032868;28;20251;-74
2021/12/25 06:40:28;;;;;;;6.65;6.10;;;3.00;99.90;;;;;;5033786;28;20564;-75
2021/12/25 06:42:55;;;;;;;5.93;5.43;;;3.00;99.90;;;;;;5032457;28;20207;-75
2021/12/25 06:45:22;;;;;;;5.78;5.28;;;3.10;99.90;;;;;;5027936;28;20571;-75
2021/12/25 06:47:49;;;;;;;5.53;5.03;;;3.10;99.90;;;;;;5031230;28;20588;-76
2021/12/25 06:50:17;;;;;;;6.50;5.90;;;3.00;99.90;;;;;;5028656;28;20301;-75
2021/12/25 06:52:45;;;;;;;7.60;6.72;;;2.90;99.90;;;;;;5030443;28;20195;-74
2021/12/25 06:55:13;;;;;;;7.90;7.10;;;2.80;99.90;;;;;;5029914;28;20222;-76
2021/12/25 06:57:47;;;;;;;7.25;6.55;;;2.70;99.90;;;;;;5026667;28;20224;-75
2021/12/25 07:00:16;;;;;;;7.43;6.63;;;2.70;99.90;;;;;;5026731;28;20200;-75
2021/12/25 07:02:43;;;;;;;6.90;6.28;;;2.70;99.90;;;;;;5029883;28;20231;-75
2021/12/25 07:05:10;;;;;;;6.55;6.05;;;2.80;99.90;;;;;;5028632;28;20641;-76
2021/12/25 07:07:39;;;;;;;7.53;6.85;;;2.90;99.90;;;;;;5029159;28;20200;-75
2021/12/25 07:10:08;;;;;;;6.60;6.03;;;2.90;99.90;;;;;;5027189;28;20223;-76
2021/12/25 07:12:37;;;;;;;6.45;5.90;;;3.00;99.90;;;;;;5030841;28;20624;-75
2021/12/25 07:15:05;;;;;;;7.20;6.60;;;3.00;99.90;;;;;;5029805;28;20195;-76
2021/12/25 07:17:32;;;;;;;7.82;7.13;;;3.10;99.90;;;;;;5032063;28;20290;-75
2021/12/25 07:19:59;;;;;;;7.88;7.18;;;3.00;99.90;;;;;;5029994;28;20219;-76
2021/12/25 07:22:26;;;;;;;7.88;7.18;;;3.00;99.90;;;;;;5030906;28;20230;-76
2021/12/25 07:24:54;;;;;;;7.50;6.80;;;2.90;99.90;;;;;;5026194;28;20588;-76
2021/12/25 07:27:22;;;;;;;8.13;7.28;;;2.90;99.90;;;;;;5027876;28;20215;-76
2021/12/25 07:29:49;;;;;;;7.43;6.80;;;2.90;99.90;;;;;;5030415;28;20633;-75
2021/12/25 07:32:16;;;;;;;7.63;6.93;;;3.00;99.90;;;;;;5027758;28;20226;-76
2021/12/25 07:34:45;;;;;;;6.93;6.32;;;3.00;99.90;;;;;;5029440;28;20196;-76
2021/12/25 07:37:13;;;;;;;7.75;7.05;;;3.00;99.90;;;;;;5031694;28;20302;-76
2021/12/25 07:39:41;;;;;;;6.55;6.00;;;3.00;99.90;;;;;;5029953;28;20216;-76
2021/12/25 07:42:10;;;;;;;7.07;6.38;;;3.10;99.90;;;;;;5036673;28;20219;-76
2021/12/25 07:44:37;;;;;;;6.93;6.32;;;3.10;99.90;;;;;;5027398;28;20197;-76
2021/12/25 07:47:09;;;;;;;6.80;6.20;;;3.20;99.90;;;;;;5031265;28;20215;-76
2021/12/25 07:49:36;;;;;;;7.50;6.80;;;3.20;99.90;;;;;;5027962;28;20219;-76
2021/12/25 07:52:03;;;;;;;8.20;7.50;;;3.20;99.90;;;;;;5028318;28;20281;-76
2021/12/25 07:54:30;;;;;;;8.80;7.90;;;3.20;99.90;;;;;;5028692;28;20286;-76
2021/12/25 07:56:57;;;;;;;8.10;7.32;;;3.20;99.90;;;;;;5030393;28;20216;-75
2021/12/25 07:59:26;;;;;;;8.77;7.95;;;3.10;99.90;;;;;;5029212;28;20215;-75
2021/12/25 08:01:53;;;;;;;7.93;7.22;;;3.10;99.90;;;;;;5027579;28;20216;-75
2021/12/25 08:04:21;;;;;;;10.02;9.13;;;3.10;99.90;;;;;;5026889;28;20581;-76
2021/12/25 08:06:48;;;;;;;12.10;9.30;;;3.10;99.90;;;;;;5028712;28;20235;-76
2021/12/25 08:09:18;;;;;;;9.00;8.30;;;3.10;99.90;;;;;;5020851;28;20231;-76
2021/12/25 08:11:45;;;;;;;9.10;7.55;;;3.10;99.90;;;;;;5022670;28;20216;-75
2021/12/25 08:14:13;;;;;;;8.73;7.82;;;3.10;99.90;;;;;;5022171;28;20200;-76
2021/12/25 08:16:42;;;;;;;10.25;9.02;;;3.20;99.90;;;;;;5028488;28;20231;-76
2021/12/25 08:19:09;;;;;;;10.35;8.88;;;3.20;99.90;;;;;;5029422;28;20459;-76
2021/12/25 08:21:36;;;;;;;9.85;8.95;;;3.20;99.90;;;;;;5026411;28;20223;-75
2021/12/25 08:24:03;;;;;;;9.45;8.48;;;3.30;99.90;;;;;;5032932;28;20199;-75
2021/12/25 08:26:30;;;;;;;8.38;7.68;;;3.30;99.90;;;;;;5022533;28;20231;-75
2021/12/25 08:28:57;;;;;;;8.35;7.45;;;3.40;99.90;;;;;;5026630;28;20218;-75
2021/12/25 08:31:26;;;;;;;8.40;7.65;;;3.40;99.90;;;;;;5022225;28;20235;-75
2021/12/25 08:33:54;;;;;;;7.75;7.03;;;3.50;99.90;;;;;;5017362;28;20199;-76
2021/12/25 08:36:22;;;;;;;8.25;7.53;;;3.50;99.90;;;;;;5043020;28;20246;-76
2021/12/25 08:38:49;;;;;;;8.60;7.80;;;3.50;99.90;;;;;;5024047;28;20281;-74
2021/12/25 08:41:17;;;;;;;8.00;7.30;;;3.50;99.90;;;;;;5023460;28;20254;-75
2021/12/25 08:43:47;;;;;;;8.23;7.50;;;3.40;99.90;;;;;;5034591;28;20207;-74
2021/12/25 08:46:18;;;;;;;8.23;7.25;;;3.40;99.90;;;;;;5022860;28;20215;-77
2021/12/25 08:48:45;;;;;;;7.70;7.00;;;3.40;99.90;;;;;;5023021;28;20227;-77
2021/12/25 08:51:13;;;;;;;7.80;7.10;;;3.30;99.90;;;;;;5021755;28;20681;-76
2021/12/25 08:53:41;;;;;;;8.30;7.47;;;3.30;99.90;;;;;;5025796;28;20206;-74
2021/12/25 08:56:08;;;;;;;10.07;9.05;;;3.30;99.90;;;;;;5020436;28;20216;-75
2021/12/25 08:58:35;;;;;;;10.70;9.70;;;3.30;99.90;;;;;;5027945;28;20220;-76
2021/12/25 09:01:07;;;;;;;10.00;8.98;;;3.40;99.90;;;;;;5025247;28;20230;-75
2021/12/25 09:03:34;;;;;;;11.10;10.00;;;3.50;99.90;;;;;;5025207;28;20841;-75
2021/12/25 09:06:02;;;;;;;13.82;12.38;;;3.50;99.90;;;;;;5028495;28;20227;-76
2021/12/25 09:08:31;;;;;;;11.63;10.43;;;3.60;99.90;;;;;;5022108;28;20223;-75
2021/12/25 09:11:00;;;;;;;10.85;9.77;;;3.60;99.90;;;;;;5018708;28;20243;-74
2021/12/25 09:13:27;;;;;;;9.68;8.82;;;3.70;99.90;;;;;;5028236;28;20191;-76
2021/12/25 09:15:54;;;;;;;10.52;9.48;;;3.80;99.90;;;;;;5024354;28;20758;-76
2021/12/25 09:18:21;;;;;;;9.95;9.05;;;3.80;99.90;;;;;;5018837;28;20647;-75
2021/12/25 09:20:48;;;;;;;9.45;8.48;;;3.80;99.90;;;;;;5016759;28;20271;-75
2021/12/25 09:23:15;;;;;;;9.93;9.00;;;3.90;99.90;;;;;;5015700;28;20195;-75
2021/12/25 09:25:44;;;;;;;9.63;8.73;;;3.90;99.90;;;;;;5015744;28;20195;-76
2021/12/25 09:28:11;;;;;;;9.48;8.68;;;4.00;99.90;;;;;;5023034;28;20219;-74
2021/12/25 09:30:38;;;;;;;10.13;9.07;;;4.00;99.90;;;;;;5022733;28;20224;-75
2021/12/25 09:33:05;;;;;;;11.90;10.75;;;4.00;99.90;;;;;;5016707;28;20196;-75
2021/12/25 09:35:32;;;;;;;10.43;9.40;;;4.00;99.90;;;;;;5016876;28;21816;-74
2021/12/25 09:38:00;;;;;;;10.50;9.50;;;4.00;99.90;;;;;;5019064;28;20265;-75
2021/12/25 09:40:27;;;;;;;11.68;10.60;;;4.10;99.90;;;;;;5018006;28;20191;-75
2021/12/25 09:42:56;;;;;;;11.77;10.63;;;4.10;99.90;;;;;;5024631;28;20214;-75
2021/12/25 09:45:24;;;;;;;9.52;8.63;;;4.20;99.90;;;;;;5030481;28;20228;-75
2021/12/25 09:47:51;;;;;;;9.13;8.30;;;4.20;99.90;;;;;;5024245;28;20222;-74
2021/12/25 09:50:18;;;;;;;8.57;7.78;;;4.20;99.90;;;;;;5062783;23;20230;-64
2021/12/25 09:52:45;;;;;;;9.88;8.95;;;4.20;99.90;;;;;;5030071;28;20218;-64
2021/12/25 09:55:14;;;;;;;9.57;8.68;;;4.20;99.90;;;;;;5029917;28;20287;-64
2021/12/25 09:57:41;;;;;;;9.93;8.43;;;4.30;99.90;;;;;;5027291;28;20230;-64
2021/12/25 10:00:13;;;;;;;10.55;9.43;;;4.30;99.90;;;;;;5021284;28;20298;-64
2021/12/25 10:02:49;;;;;;;11.90;10.68;;;4.30;99.90;;;;;;5023580;28;20219;-64
2021/12/25 10:05:25;;;;;;;11.80;9.68;;;4.20;99.90;;;;;;5024749;28;20208;-64
2021/12/25 10:08:03;;;;;;;10.93;9.88;;;4.20;99.90;;;;;;5026709;28;20218;-66
2021/12/25 10:10:41;;;;;;;10.65;9.65;;;4.20;99.90;;;;;;5024693;28;20245;-64
2021/12/25 10:13:24;;;;;;;10.90;9.85;;;4.30;99.90;;;;;;5025030;28;20208;-65
2021/12/25 10:15:54;;;;;;;11.20;10.20;;;4.40;99.90;;;;;;5021469;28;20203;-64
2021/12/25 10:18:29;;;;;;;10.43;9.52;;;4.40;99.90;;;;;;5023478;28;20547;-64
2021/12/25 10:20:57;;;;;;;13.00;11.70;;;4.50;99.90;;;;;;5023301;28;20201;-64
2021/12/25 10:23:29;;;;;;;13.02;11.60;;;4.50;99.90;;;;;;5023458;28;20196;-65
2021/12/25 10:26:01;;;;;;;11.88;10.68;;;4.40;99.90;;;;;;5026856;28;20290;-65
2021/12/25 10:28:36;;;;;;;10.90;9.57;;;4.40;99.90;;;;;;5016483;28;20265;-65
2021/12/25 10:31:07;;;;;;;10.57;9.45;;;4.40;99.90;;;;;;5021876;28;20223;-66
2021/12/25 10:33:37;;;;;;;10.15;8.90;;;4.50;99.90;;;;;;5024628;28;20576;-65
2021/12/25 10:36:08;;;;;;;9.55;8.65;;;4.50;99.90;;;;;;5021591;28;20246;-65
2021/12/25 10:38:36;;;;;;;9.43;8.38;;;4.60;99.90;;;;;;5021652;28;20198;-65
2021/12/25 10:41:22;;;;;;;10.32;9.30;;;4.70;99.90;;;;;;5023552;28;20203;-65
2021/12/25 10:43:53;;;;;;;11.18;10.00;;;4.80;99.90;;;;;;5028029;28;20639;-65
2021/12/25 10:46:22;;;;;;;10.70;9.60;;;4.80;99.90;;;;;;5021959;28;20644;-65
2021/12/25 10:48:49;;;;;;;9.38;8.43;;;4.80;99.90;;;;;;5021876;28;20199;-65
2021/12/25 10:51:29;;;;;;;9.93;8.93;;;4.80;99.90;;;;;;5023010;28;20293;-66
2021/12/25 10:53:58;;;;;;;12.13;10.90;;;4.90;99.90;;;;;;5022278;28;20649;-65
2021/12/25 10:56:34;;;;;;;11.45;10.35;;;4.90;99.90;;;;;;5017133;28;20317;-65
2021/12/25 10:59:05;;;;;;;10.88;9.82;;;5.00;99.90;;;;;;5018696;28;20288;-64
2021/12/25 11:01:39;;;;;;;10.10;9.10;;;5.00;99.90;;;;;;5022134;28;20291;-65
2021/12/25 11:04:08;;;;;;;10.55;9.50;;;5.00;99.90;;;;;;5018010;28;20204;-65
2021/12/25 11:06:42;;;;;;;19.77;13.07;;;5.00;99.90;;;;;;5018777;28;20327;-64
2021/12/25 11:09:10;;;;;;;18.23;12.63;;;5.00;99.90;;;;;;5021673;28;20491;-64
2021/12/25 11:11:37;;;;;;;16.67;11.75;;;5.20;99.90;;;;;;5023269;28;20314;-63
2021/12/25 11:14:07;;;;;;;13.50;11.40;;;5.30;99.90;;;;;;5025372;28;20408;-64
2021/12/25 11:16:39;;;;;;;12.57;10.43;;;5.40;99.90;;;;;;5022470;28;20219;-64
2021/12/25 11:19:09;;;;;;;11.57;10.23;;;5.40;99.90;;;;;;5016263;28;20224;-64
2021/12/25 11:21:39;;;;;;;11.60;10.38;;;5.30;99.90;;;;;;5018695;28;20250;-65
2021/12/25 11:24:13;;;;;;;9.38;8.48;;;5.30;99.90;;;;;;5024933;28;20662;-64
2021/12/25 11:26:43;;;;;;;11.18;10.15;;;5.40;99.90;;;;;;5018727;28;20246;-64
2021/12/25 11:29:12;;;;;;;10.70;9.70;;;5.40;99.90;;;;;;5015111;28;20235;-63
2021/12/25 11:31:43;;;;;;;10.20;9.20;;;5.40;99.90;;;;;;5021634;28;20224;-67
2021/12/25 11:34:10;;;;;;;10.30;9.30;;;5.40;99.90;;;;;;5018195;28;20192;-64
2021/12/25 11:36:40;;;;;;;11.10;10.00;;;5.40;99.90;;;;;;5020982;28;20706;-64
2021/12/25 11:39:08;;;;;;;10.82;9.80;;;5.40;99.90;;;;;;5018132;28;20228;-64
2021/12/25 11:41:37;;;;;;;13.73;11.40;;;5.40;99.90;;;;;;5017468;28;21185;-64
2021/12/25 11:44:07;;;;;;;12.70;11.35;;;5.50;99.90;;;;;;5022167;28;20285;-64
2021/12/25 11:46:39;;;;;;;13.00;11.70;;;5.50;99.90;;;;;;5017641;28;20234;-64
2021/12/25 11:49:10;;;;;;;13.40;12.00;;;5.50;99.90;;;;;;5012588;28;20600;-64
2021/12/25 11:51:40;;;;;;;12.57;11.27;;;5.40;99.90;;;;;;5013958;28;20232;-67
2021/12/25 11:54:43;;;;;;;15.77;12.68;;;5.40;99.90;;;;;;5014993;28;20764;-66
2021/12/25 11:57:34;;;;;;;12.15;10.93;;;5.40;99.90;;;;;;5020268;28;20215;-66
2021/12/25 12:00:00;;;;;;;12.35;11.23;;;5.40;99.90;;;;;;5018699;28;20729;-66
2021/12/25 12:02:40;;;;;;;16.15;13.75;;;5.40;99.90;;;;;;5020851;28;20216;-66
2021/12/25 12:05:24;;;;;;;15.90;12.27;;;5.50;99.90;;;;;;5019886;28;20256;-66
2021/12/25 12:08:04;;;;;;;15.88;13.65;;;5.60;99.90;;;;;;5016261;28;20231;-66
2021/12/25 12:10:59;;;;;;;16.98;13.10;;;5.60;99.90;;;;;;5017002;28;20230;-66
2021/12/25 12:13:29;;;;;;;17.63;14.55;;;5.60;99.90;;;;;;5018496;28;20270;-66
2021/12/25 12:15:58;;;;;;;16.25;12.55;;;5.70;99.90;;;;;;5018788;28;20187;-66
2021/12/25 12:18:40;;;;;;;15.88;13.35;;;5.80;99.90;;;;;;5017708;28;20726;-66
2021/12/25 12:21:35;;;;;;;19.23;14.20;;;5.90;99.90;;;;;;5019397;28;20203;-68
2021/12/25 12:24:47;;;;;;;16.45;13.55;;;6.00;99.90;;;;;;5017181;28;20261;-66
2021/12/25 12:27:32;;;;;;;16.80;14.38;;;6.10;99.90;;;;;;5017999;28;20307;-65
2021/12/25 12:29:59;;;;;;;16.33;14.10;;;6.10;99.90;;;;;;5020987;28;20226;-66
2021/12/25 12:32:36;;;;;;;18.27;15.98;;;6.10;99.90;;;;;;5015367;28;20282;-66
2021/12/25 12:35:05;;;;;;;16.73;14.82;;;6.00;99.90;;;;;;5015925;28;20903;-65
2021/12/25 12:37:35;;;;;;;16.35;14.60;;;6.00;99.90;;;;;;5017435;28;20306;-65
2021/12/25 12:40:25;;;;;;;17.02;14.15;;;6.10;99.90;;;;;;5016307;28;20223;-66
2021/12/25 12:42:57;;;;;;;15.95;13.82;;;6.20;99.90;;;;;;5013707;28;20265;-65
2021/12/25 12:45:26;;;;;;;25.40;18.95;;;6.30;99.90;;;;;;5011198;28;20261;-66
2021/12/25 12:48:16;;;;;;;19.98;16.90;;;6.40;99.90;;;;;;5016262;28;20212;-65
2021/12/25 12:50:45;;;;;;;20.23;16.42;;;6.40;99.90;;;;;;5014246;28;20226;-65
2021/12/25 12:53:14;;;;;;;17.17;15.38;;;6.40;99.90;;;;;;5015856;28;20561;-66
2021/12/25 12:55:43;;;;;;;17.15;14.30;;;6.40;99.90;;;;;;5018716;28;20200;-66
2021/12/25 12:58:14;;;;;;;13.57;12.18;;;6.30;99.90;;;;;;5028683;28;20215;-66
2021/12/25 13:00:44;;;;;;;13.40;11.57;;;6.30;99.90;;;;;;5033290;28;20774;-66
2021/12/25 13:03:12;;;;;;;12.85;10.40;;;6.30;99.90;;;;;;5039855;28;20225;-66
2021/12/25 13:05:41;;;;;;;12.48;10.57;;;6.30;99.90;;;;;;5034475;28;20476;-66
2021/12/25 13:08:15;;;;;;;12.63;10.65;;;6.30;99.90;;;;;;5035043;28;20264;-66
2021/12/25 13:10:50;;;;;;;11.60;10.50;;;6.30;99.90;;;;;;5037607;28;20219;-66
2021/12/25 13:13:19;;;;;;;11.88;10.23;;;6.30;99.90;;;;;;5038065;28;20215;-66
2021/12/25 13:15:49;;;;;;;10.90;9.85;;;6.30;99.90;;;;;;5034931;28;20217;-66
2021/12/25 13:18:18;;;;;;;11.23;10.13;;;6.30;99.90;;;;;;5031249;28;20218;-66
2021/12/25 13:20:47;;;;;;;10.75;9.65;;;6.30;99.90;;;;;;5037910;28;20214;-66
2021/12/25 13:23:18;;;;;;;11.52;10.25;;;6.30;99.90;;;;;;5033448;28;20265;-66
2021/12/25 13:25:48;;;;;;;13.15;10.85;;;6.30;99.90;;;;;;5037810;28;20253;-66
2021/12/25 13:28:16;;;;;;;21.25;10.18;;;6.20;99.90;;;;;;5034441;28;20303;-66
2021/12/25 13:30:49;;;;;;;10.18;9.10;;;6.20;99.90;;;;;;5033231;28;20222;-66
2021/12/25 13:33:19;;;;;;;9.57;8.60;;;6.10;99.90;;;;;;5031290;28;20222;-66
2021/12/25 13:35:47;;;;;;;9.73;8.75;;;6.00;99.90;;;;;;5033196;28;20286;-66
2021/12/25 13:38:17;;;;;;;10.65;9.55;;;5.90;99.90;;;;;;5033533;28;20226;-66
2021/12/25 13:40:49;;;;;;;12.05;10.65;;;5.90;99.90;;;;;;5033397;28;20223;-66
2021/12/25 13:43:17;;;;;;;11.40;10.07;;;6.00;99.90;;;;;;5029063;28;20223;-66
2021/12/25 13:45:44;;;;;;;10.32;9.27;;;6.00;99.90;;;;;;5032562;28;20195;-65
2021/12/25 13:48:11;;;;;;;9.60;8.60;;;6.00;99.90;;;;;;5037670;28;20226;-66
2021/12/25 13:50:38;;;;;;;10.30;8.98;;;6.00;99.90;;;;;;5031189;28;20244;-65